createdAt,value
2018-09-30T00:01:06.796Z,9.00
2018-09-30T00:03:34.976Z,8.87
2018-09-30T00:06:03.102Z,8.87
2018-09-30T00:08:31.282Z,12.07
2018-09-30T00:10:59.475Z,6.83
2018-09-30T00:13:28.305Z,7.90
2018-09-30T00:15:56.844Z,7.83
2018-09-30T00:18:25.221Z,8.47
2018-09-30T00:20:53.529Z,10.20
2018-09-30T00:23:21.700Z,9.13
2018-09-30T00:25:55.560Z,8.13
2018-09-30T00:28:23.760Z,10.47
2018-09-30T00:30:52.157Z,7.70
2018-09-30T00:33:20.304Z,9.60
2018-09-30T00:35:48.483Z,9.90
2018-09-30T00:38:16.861Z,9.10
2018-09-30T00:40:45.003Z,8.00
2018-09-30T00:43:13.262Z,9.63
2018-09-30T00:45:41.405Z,10.20
2018-09-30T00:48:09.713Z,8.67
2018-09-30T00:50:37.856Z,9.80
2018-09-30T00:53:05.953Z,8.47
2018-09-30T00:55:34.088Z,12.13
2018-09-30T00:58:02.358Z,11.50
2018-09-30T01:00:30.518Z,10.07
2018-09-30T01:02:58.612Z,12.67
2018-09-30T01:05:26.867Z,7.63
2018-09-30T01:07:55.120Z,7.90
2018-09-30T01:10:23.274Z,11.40
2018-09-30T01:12:51.408Z,13.43
2018-09-30T01:15:19.550Z,8.90
2018-09-30T01:17:47.692Z,7.77
2018-09-30T01:20:15.974Z,14.83
2018-09-30T01:22:44.175Z,12.90
2018-09-30T01:25:12.663Z,9.17
2018-09-30T01:27:40.858Z,11.30
2018-09-30T01:30:09.139Z,10.60
2018-09-30T01:32:37.451Z,12.47
2018-09-30T01:35:05.663Z,9.53
2018-09-30T01:37:34.499Z,7.60
2018-09-30T01:40:09.027Z,8.70
2018-09-30T01:42:37.367Z,12.33
2018-09-30T01:45:05.583Z,14.00
2018-09-30T01:47:33.724Z,10.23
2018-09-30T01:50:03.104Z,8.83
2018-09-30T01:52:52.164Z,7.93
2018-09-30T01:55:20.395Z,6.90
2018-09-30T01:57:48.508Z,9.73
2018-09-30T02:00:17.228Z,9.47
2018-09-30T02:02:45.906Z,9.67
2018-09-30T02:05:15.225Z,10.60
2018-09-30T02:07:43.780Z,10.40
2018-09-30T02:10:11.958Z,11.57
2018-09-30T02:12:40.342Z,13.50
2018-09-30T02:15:08.549Z,9.03
2018-09-30T02:17:36.880Z,9.37
2018-09-30T02:20:05.106Z,11.27
2018-09-30T02:22:33.559Z,9.03
2018-09-30T02:25:01.726Z,12.70
2018-09-30T02:27:30.045Z,14.33
2018-09-30T02:29:58.348Z,8.43
2018-09-30T02:32:26.702Z,8.17
2018-09-30T02:34:54.993Z,13.33
2018-09-30T02:37:23.283Z,11.57
2018-09-30T02:39:51.511Z,11.90
2018-09-30T02:42:19.793Z,8.03
2018-09-30T02:44:47.941Z,7.20
2018-09-30T02:47:16.127Z,12.07
2018-09-30T02:49:44.499Z,10.90
2018-09-30T02:52:12.732Z,9.40
2018-09-30T02:54:41.121Z,10.20
2018-09-30T02:57:09.311Z,12.73
2018-09-30T02:59:37.455Z,11.13
2018-09-30T03:02:06.153Z,10.40
2018-09-30T03:04:34.322Z,11.07
2018-09-30T03:07:08.221Z,9.87
2018-09-30T03:09:36.511Z,11.00
2018-09-30T03:12:04.741Z,10.97
2018-09-30T03:14:32.924Z,7.47
2018-09-30T03:17:01.056Z,9.90
2018-09-30T03:19:29.493Z,9.00
2018-09-30T03:21:57.696Z,10.70
2018-09-30T03:24:25.957Z,15.10
2018-09-30T03:26:54.254Z,14.20
2018-09-30T03:29:22.749Z,16.93
2018-09-30T03:31:51.181Z,13.03
2018-09-30T03:34:19.368Z,10.83
2018-09-30T03:36:47.634Z,10.63
2018-09-30T03:39:16.324Z,20.37
2018-09-30T03:41:44.517Z,11.80
2018-09-30T03:44:13.253Z,12.63
2018-09-30T03:46:41.429Z,9.13
2018-09-30T03:49:10.015Z,12.13
2018-09-30T03:51:38.214Z,12.27
2018-09-30T03:54:06.519Z,10.73
2018-09-30T03:56:34.798Z,11.60
2018-09-30T03:59:03.022Z,11.43
2018-09-30T04:01:31.327Z,9.60
2018-09-30T04:03:59.561Z,10.07
2018-09-30T04:06:28.317Z,11.43
2018-09-30T04:08:56.530Z,10.67
2018-09-30T04:11:24.881Z,11.53
2018-09-30T04:13:53.337Z,11.47
2018-09-30T04:16:21.555Z,16.60
2018-09-30T04:18:49.806Z,21.23
2018-09-30T04:21:18.271Z,15.17
2018-09-30T04:23:46.768Z,16.93
2018-09-30T04:26:14.997Z,27.03
2018-09-30T04:28:43.186Z,13.63
2018-09-30T04:31:11.316Z,13.20
2018-09-30T04:33:39.466Z,12.53
2018-09-30T04:36:07.640Z,12.00
2018-09-30T04:38:35.950Z,12.23
2018-09-30T04:41:04.351Z,14.00
2018-09-30T04:43:32.725Z,14.83
2018-09-30T04:46:00.776Z,13.43
2018-09-30T04:48:28.901Z,9.03
2018-09-30T04:50:57.228Z,11.33
2018-09-30T04:53:25.558Z,8.47
2018-09-30T04:55:53.869Z,8.00
2018-09-30T04:58:23.275Z,8.67
2018-09-30T05:00:51.625Z,9.77
2018-09-30T05:03:19.831Z,12.10
2018-09-30T05:05:48.236Z,11.33
2018-09-30T05:08:16.335Z,13.30
2018-09-30T05:10:44.622Z,9.37
2018-09-30T05:13:12.866Z,7.33
2018-09-30T05:15:41.454Z,9.87
2018-09-30T05:18:09.607Z,16.00
2018-09-30T05:20:37.764Z,15.40
2018-09-30T05:23:06.372Z,15.70
2018-09-30T05:25:34.749Z,14.60
2018-09-30T05:28:02.939Z,12.20
2018-09-30T05:30:31.109Z,16.03
2018-09-30T05:32:59.407Z,19.57
2018-09-30T05:35:27.691Z,13.13
2018-09-30T05:37:55.988Z,22.60
2018-09-30T05:40:24.492Z,21.40
2018-09-30T05:42:52.688Z,26.27
2018-09-30T05:45:20.926Z,41.13
2018-09-30T05:47:49.100Z,27.53
2018-09-30T05:50:17.416Z,14.50
2018-09-30T05:52:45.685Z,16.40
2018-09-30T05:55:14.020Z,11.37
2018-09-30T05:57:42.443Z,14.73
2018-09-30T06:00:10.626Z,12.53
2018-09-30T06:02:39.064Z,10.30
2018-09-30T06:05:07.390Z,8.63
2018-09-30T06:07:35.694Z,11.37
2018-09-30T06:10:04.517Z,13.60
2018-09-30T06:12:32.786Z,13.17
2018-09-30T06:15:01.228Z,12.27
2018-09-30T06:17:29.504Z,8.20
2018-09-30T06:19:57.799Z,9.07
2018-09-30T06:22:26.270Z,6.07
2018-09-30T06:24:54.633Z,7.90
2018-09-30T06:27:23.383Z,6.47
2018-09-30T06:29:51.863Z,6.57
2018-09-30T06:32:20.151Z,6.53
2018-09-30T06:34:48.512Z,6.40
2018-09-30T06:37:17.275Z,15.40
2018-09-30T06:39:45.464Z,9.93
2018-09-30T06:42:13.650Z,13.17
2018-09-30T06:44:41.927Z,9.50
2018-09-30T06:47:10.398Z,7.70
2018-09-30T06:49:38.605Z,9.57
2018-09-30T06:52:07.053Z,5.83
2018-09-30T06:54:35.316Z,7.90
2018-09-30T06:57:05.075Z,4.87
2018-09-30T06:59:34.731Z,4.50
2018-09-30T07:02:04.605Z,5.57
2018-09-30T07:04:33.132Z,7.47
2018-09-30T07:07:01.885Z,4.83
2018-09-30T07:09:31.838Z,6.60
2018-09-30T07:12:01.005Z,6.93
2018-09-30T07:14:30.067Z,7.73
2018-09-30T07:16:58.380Z,7.80
2018-09-30T07:19:28.183Z,5.17
2018-09-30T07:21:57.576Z,5.03
2018-09-30T07:24:25.842Z,5.60
2018-09-30T07:26:55.154Z,7.60
2018-09-30T07:29:26.455Z,7.33
2018-09-30T07:31:54.903Z,4.73
2018-09-30T07:34:23.245Z,7.50
2018-09-30T07:36:51.557Z,7.37
2018-09-30T07:39:19.811Z,6.50
2018-09-30T07:41:48.470Z,6.43
2018-09-30T07:44:17.137Z,6.57
2018-09-30T07:46:45.402Z,4.93
2018-09-30T07:49:13.511Z,5.03
2018-09-30T07:51:41.703Z,5.77
2018-09-30T07:54:10.055Z,4.83
2018-09-30T07:56:38.645Z,5.07
2018-09-30T07:59:07.401Z,5.87
2018-09-30T08:01:35.592Z,5.67
2018-09-30T08:04:04.164Z,8.27
2018-09-30T08:06:32.377Z,6.57
2018-09-30T08:09:00.569Z,6.73
2018-09-30T08:11:28.945Z,9.13
2018-09-30T08:13:57.815Z,5.77
2018-09-30T08:16:26.068Z,7.33
2018-09-30T08:18:54.361Z,7.93
2018-09-30T08:21:22.708Z,7.10
2018-09-30T08:23:51.115Z,7.20
2018-09-30T08:26:19.449Z,8.00
2018-09-30T08:28:48.028Z,7.07
2018-09-30T08:31:16.319Z,5.13
2018-09-30T08:33:45.796Z,6.63
2018-09-30T08:36:14.138Z,10.37
2018-09-30T08:38:42.674Z,4.77
2018-09-30T08:41:11.911Z,7.53
2018-09-30T08:43:41.700Z,9.30
2018-09-30T08:46:10.332Z,5.30
2018-09-30T08:48:38.592Z,9.53
2018-09-30T08:51:07.090Z,9.00
2018-09-30T08:53:35.570Z,9.20
2018-09-30T08:56:04.267Z,7.60
2018-09-30T08:58:34.511Z,6.97
2018-09-30T09:01:03.349Z,7.37
2018-09-30T09:03:33.081Z,7.53
2018-09-30T09:07:04.975Z,6.47
2018-09-30T09:09:33.152Z,7.93
2018-09-30T09:12:01.811Z,6.23
2018-09-30T09:14:30.127Z,7.17
2018-09-30T09:16:58.342Z,7.27
2018-09-30T09:19:26.769Z,8.40
2018-09-30T09:21:55.141Z,6.23
2018-09-30T09:24:23.462Z,7.73
2018-09-30T09:26:51.670Z,5.57
2018-09-30T09:29:20.112Z,6.53
2018-09-30T09:31:48.415Z,5.63
2018-09-30T09:34:16.594Z,8.27
2018-09-30T09:36:44.926Z,8.30
2018-09-30T09:39:13.410Z,6.80
2018-09-30T09:41:41.717Z,6.33
2018-09-30T09:44:10.355Z,7.00
2018-09-30T09:46:38.718Z,6.33
2018-09-30T09:49:07.302Z,7.13
2018-09-30T09:51:35.714Z,6.47
2018-09-30T09:54:04.338Z,5.27
2018-09-30T09:56:32.634Z,6.97
2018-09-30T09:59:00.964Z,5.23
2018-09-30T10:01:29.747Z,6.63
2018-09-30T10:03:58.908Z,6.57
2018-09-30T10:06:27.347Z,7.23
2018-09-30T10:08:55.612Z,6.20
2018-09-30T10:11:24.895Z,7.30
2018-09-30T10:13:53.576Z,7.30
2018-09-30T10:16:22.443Z,5.87
2018-09-30T10:18:50.871Z,6.77
2018-09-30T10:21:20.928Z,5.90
2018-09-30T10:23:49.443Z,7.13
2018-09-30T10:26:17.820Z,8.20
2018-09-30T10:28:46.187Z,7.70
2018-09-30T10:31:14.537Z,5.00
2018-09-30T10:33:42.949Z,7.70
2018-09-30T10:36:14.867Z,6.90
2018-09-30T10:38:43.171Z,7.60
2018-09-30T10:41:11.873Z,10.03
2018-09-30T10:43:40.243Z,8.43
2018-09-30T10:46:09.433Z,9.37
2018-09-30T10:48:37.895Z,7.50
2018-09-30T10:51:06.419Z,10.17
2018-09-30T10:53:35.177Z,9.17
2018-09-30T10:56:03.595Z,7.43
2018-09-30T10:58:32.159Z,7.20
2018-09-30T11:01:00.406Z,8.10
2018-09-30T11:03:28.769Z,9.97
2018-09-30T11:05:56.994Z,8.03
2018-09-30T11:08:28.440Z,11.60
2018-09-30T11:10:56.756Z,7.57
2018-09-30T11:13:24.962Z,11.77
2018-09-30T11:15:54.572Z,13.17
2018-09-30T11:18:22.839Z,9.97
2018-09-30T11:20:51.417Z,11.60
2018-09-30T11:23:19.668Z,10.53
2018-09-30T11:25:47.843Z,8.67
2018-09-30T11:28:16.180Z,9.10
2018-09-30T11:30:44.617Z,10.50
2018-09-30T11:33:13.182Z,8.77
2018-09-30T11:35:41.388Z,11.00
2018-09-30T11:38:09.632Z,8.63
2018-09-30T11:40:37.897Z,10.90
2018-09-30T11:43:16.196Z,10.33
2018-09-30T11:45:44.430Z,7.77
2018-09-30T11:48:12.880Z,10.00
2018-09-30T11:50:41.356Z,9.57
2018-09-30T11:53:09.667Z,10.70
2018-09-30T11:55:38.201Z,10.93
2018-09-30T11:58:06.519Z,11.87
2018-09-30T12:00:34.829Z,12.77
2018-09-30T12:03:03.309Z,10.03
2018-09-30T12:05:31.493Z,13.30
2018-09-30T12:07:59.609Z,12.47
2018-09-30T12:10:27.936Z,9.23
2018-09-30T12:12:56.166Z,9.37
2018-09-30T12:15:24.364Z,10.23
2018-09-30T12:17:52.539Z,11.00
2018-09-30T12:20:21.086Z,10.20
2018-09-30T12:22:49.207Z,11.30
2018-09-30T12:25:17.365Z,15.83
2018-09-30T12:27:45.550Z,10.33
2018-09-30T12:30:13.778Z,11.77
2018-09-30T12:32:41.930Z,13.57
2018-09-30T12:35:10.115Z,10.13
2018-09-30T12:37:38.343Z,7.97
2018-09-30T12:40:06.707Z,12.27
2018-09-30T12:42:34.875Z,11.40
2018-09-30T12:45:03.259Z,9.70
2018-09-30T12:47:31.427Z,11.97
2018-09-30T12:49:59.649Z,11.60
2018-09-30T12:52:27.978Z,11.13
2018-09-30T12:54:56.208Z,12.37
2018-09-30T12:57:24.414Z,11.10
2018-09-30T12:59:52.601Z,12.10
2018-09-30T13:02:20.804Z,10.43
2018-09-30T13:04:48.984Z,9.07
2018-09-30T13:07:17.253Z,9.93
2018-09-30T13:09:45.417Z,13.73
2018-09-30T13:12:14.128Z,8.20
2018-09-30T13:14:43.449Z,10.27
2018-09-30T13:17:11.931Z,8.57
2018-09-30T13:19:40.509Z,10.73
2018-09-30T13:22:09.037Z,10.23
2018-09-30T13:24:37.181Z,10.67
2018-09-30T13:27:05.500Z,8.23
2018-09-30T13:29:33.701Z,10.03
2018-09-30T13:32:02.217Z,10.77
2018-09-30T13:34:30.391Z,8.60
2018-09-30T13:36:58.806Z,11.80
2018-09-30T13:39:27.786Z,9.97
2018-09-30T13:41:57.789Z,9.30
2018-09-30T13:44:26.571Z,9.17
2018-09-30T13:46:54.841Z,10.63
2018-09-30T13:49:23.366Z,8.53
2018-09-30T13:51:51.859Z,8.60
2018-09-30T13:54:19.970Z,7.40
2018-09-30T13:56:48.194Z,6.87
2018-09-30T13:59:16.375Z,9.47
2018-09-30T14:01:44.672Z,8.87
2018-09-30T14:04:13.415Z,11.40
2018-09-30T14:06:41.977Z,10.63
2018-09-30T14:09:10.654Z,11.23
2018-09-30T14:11:39.376Z,8.33
2018-09-30T14:14:07.861Z,10.53
2018-09-30T14:16:36.064Z,8.93
2018-09-30T14:19:04.389Z,10.13
2018-09-30T14:21:32.904Z,9.77
2018-09-30T14:24:01.349Z,7.97
2018-09-30T14:26:29.714Z,6.73
2018-09-30T14:28:57.921Z,8.87
2018-09-30T14:31:26.177Z,10.10
2018-09-30T14:33:54.607Z,10.17
2018-09-30T14:36:23.124Z,8.40
2018-09-30T14:38:51.507Z,8.97
2018-09-30T14:41:19.731Z,7.30
2018-09-30T14:43:48.043Z,10.30
2018-09-30T14:46:16.228Z,11.90
2018-09-30T14:48:44.636Z,19.70
2018-09-30T14:51:13.231Z,12.03
2018-09-30T14:53:41.670Z,8.97
2018-09-30T14:56:09.969Z,9.47
2018-09-30T14:58:38.331Z,9.63
2018-09-30T15:01:06.706Z,8.30
2018-09-30T15:03:34.997Z,8.57
2018-09-30T15:06:03.324Z,11.23
2018-09-30T15:08:31.535Z,7.47
2018-09-30T15:10:59.971Z,7.40
2018-09-30T15:13:28.144Z,7.07
2018-09-30T15:15:57.415Z,15.30
2018-09-30T15:18:25.639Z,6.57
2018-09-30T15:20:53.900Z,10.70
2018-09-30T15:23:22.124Z,7.60
2018-09-30T15:25:50.272Z,10.37
2018-09-30T15:28:18.439Z,8.10
2018-09-30T15:30:46.540Z,9.40
2018-09-30T15:33:14.722Z,9.37
2018-09-30T15:35:42.861Z,8.93
2018-09-30T15:38:11.007Z,9.27
2018-09-30T15:40:39.206Z,6.80
2018-09-30T15:43:07.759Z,6.43
2018-09-30T15:45:36.080Z,7.50
2018-09-30T15:48:04.326Z,11.53
2018-09-30T15:50:32.648Z,8.87
2018-09-30T15:53:00.895Z,6.73
2018-09-30T15:55:29.088Z,8.27
2018-09-30T15:57:57.245Z,5.80
2018-09-30T16:00:25.463Z,5.47
2018-09-30T16:02:53.621Z,9.40
2018-09-30T16:05:21.962Z,5.93
2018-09-30T16:07:50.107Z,7.13
2018-09-30T16:10:18.287Z,7.20
2018-09-30T16:12:47.025Z,8.63
2018-09-30T16:15:15.236Z,7.73
2018-09-30T16:17:43.492Z,8.50
2018-09-30T16:20:12.012Z,8.77
2018-09-30T16:22:40.228Z,7.33
2018-09-30T16:25:08.481Z,6.90
2018-09-30T16:27:36.680Z,7.17
2018-09-30T16:30:05.169Z,9.03
2018-09-30T16:32:33.646Z,6.97
2018-09-30T16:35:01.929Z,6.70
2018-09-30T16:37:30.239Z,5.47
2018-09-30T16:39:58.510Z,8.83
2018-09-30T16:42:26.673Z,4.47
2018-09-30T16:44:54.858Z,5.83
2018-09-30T16:47:23.034Z,7.33
2018-09-30T16:49:51.405Z,5.20
2018-09-30T16:52:19.581Z,6.00
2018-09-30T16:54:47.816Z,7.27
2018-09-30T16:57:16.205Z,8.43
2018-09-30T16:59:44.410Z,5.50
2018-09-30T17:02:12.686Z,7.27
2018-09-30T17:04:41.146Z,9.80
2018-09-30T17:07:09.428Z,6.13
2018-09-30T17:09:37.592Z,9.03
2018-09-30T17:12:06.031Z,8.70
2018-09-30T17:14:34.225Z,5.90
2018-09-30T17:17:02.760Z,8.87
2018-09-30T17:19:30.990Z,6.20
2018-09-30T17:21:59.600Z,13.47
2018-09-30T17:24:27.713Z,7.53
2018-09-30T17:26:56.100Z,8.30
2018-09-30T17:29:24.776Z,7.93
2018-09-30T17:31:53.090Z,8.43
2018-09-30T17:34:21.458Z,6.80
2018-09-30T17:36:49.873Z,8.67
2018-09-30T17:39:18.280Z,10.17
2018-09-30T17:41:46.968Z,11.03
2018-09-30T17:44:15.235Z,11.27
2018-09-30T17:46:43.547Z,13.63
2018-09-30T17:49:12.590Z,10.97
2018-09-30T17:51:41.111Z,10.20
2018-09-30T17:54:09.566Z,17.90
2018-09-30T17:56:38.171Z,16.10
2018-09-30T17:59:06.465Z,14.53
2018-09-30T18:01:35.460Z,15.27
2018-09-30T18:04:05.132Z,13.37
2018-09-30T18:06:33.494Z,11.10
2018-09-30T18:09:02.384Z,14.93
2018-09-30T18:11:30.860Z,12.17
2018-09-30T18:13:59.327Z,11.30
2018-09-30T18:16:27.899Z,13.53
2018-09-30T18:18:56.117Z,14.97
2018-09-30T18:21:24.636Z,16.00
2018-09-30T18:23:53.421Z,13.40
2018-09-30T18:26:21.643Z,14.07
2018-09-30T18:28:50.404Z,15.60
2018-09-30T18:31:18.879Z,14.90
2018-09-30T18:33:47.234Z,16.13
2018-09-30T18:36:15.933Z,17.87
2018-09-30T18:38:45.086Z,14.63
2018-09-30T18:41:14.445Z,14.47
2018-09-30T18:43:43.288Z,12.27
2018-09-30T18:46:11.775Z,14.87
2018-09-30T18:48:41.327Z,13.27
2018-09-30T18:51:10.357Z,13.70
2018-09-30T18:53:39.325Z,15.90
2018-09-30T18:56:08.582Z,11.70
2018-09-30T18:58:37.641Z,15.30
2018-09-30T19:01:07.906Z,14.93
2018-09-30T19:03:36.615Z,13.50
2018-09-30T19:06:05.249Z,12.47
2018-09-30T19:08:34.138Z,12.43
2018-09-30T19:11:02.677Z,10.50
2018-09-30T19:13:31.112Z,16.03
2018-09-30T19:15:59.565Z,13.37
2018-09-30T19:18:27.944Z,12.87
2018-09-30T19:20:56.804Z,18.80
2018-09-30T19:23:25.980Z,18.63
2018-09-30T19:25:55.718Z,13.07
2018-09-30T19:28:24.087Z,11.53
2018-09-30T19:30:52.363Z,14.63
2018-09-30T19:33:20.668Z,11.37
2018-09-30T19:35:49.386Z,11.17
2018-09-30T19:38:18.746Z,9.33
2018-09-30T19:40:47.240Z,11.13
2018-09-30T19:43:15.930Z,9.13
2018-09-30T19:45:44.969Z,10.73
2018-09-30T19:48:13.396Z,10.90
2018-09-30T19:50:41.870Z,9.07
2018-09-30T19:53:10.755Z,15.13
2018-09-30T19:55:39.196Z,21.17
2018-09-30T19:58:07.931Z,11.43
2018-09-30T20:00:36.073Z,15.93
2018-09-30T20:03:04.829Z,9.10
2018-09-30T20:05:33.110Z,18.57
2018-09-30T20:08:01.732Z,12.27
2018-09-30T20:10:30.503Z,19.07
2018-09-30T20:13:00.118Z,18.73
2018-09-30T20:15:28.922Z,16.50
2018-09-30T20:17:57.374Z,15.73
2018-09-30T20:20:29.120Z,13.13
2018-09-30T20:22:57.857Z,11.17
2018-09-30T20:25:26.761Z,10.93
2018-09-30T20:27:55.386Z,12.13
2018-09-30T20:30:23.882Z,13.47
2018-09-30T20:32:53.025Z,13.60
2018-09-30T20:35:22.076Z,18.20
2018-09-30T20:37:50.392Z,12.60
2018-09-30T20:40:19.552Z,13.50
2018-09-30T20:42:48.364Z,18.30
2018-09-30T20:45:17.397Z,11.87
2018-09-30T20:47:46.045Z,12.47
2018-09-30T20:50:14.564Z,12.97
2018-09-30T20:52:42.970Z,15.27
2018-09-30T20:55:12.225Z,13.07
2018-09-30T20:57:40.452Z,9.67
2018-09-30T21:00:09.165Z,17.13
2018-09-30T21:02:37.990Z,10.37
2018-09-30T21:05:22.972Z,12.03
2018-09-30T21:07:51.426Z,12.07
2018-09-30T21:10:19.610Z,11.37
2018-09-30T21:12:48.024Z,14.07
2018-09-30T21:15:16.185Z,10.03
2018-09-30T21:17:44.507Z,9.83
2018-09-30T21:20:12.970Z,15.00
2018-09-30T21:22:41.136Z,17.43
2018-09-30T21:25:09.755Z,12.00
2018-09-30T21:27:38.051Z,11.43
2018-09-30T21:30:07.028Z,14.43
2018-09-30T21:32:35.503Z,16.30
2018-09-30T21:35:03.818Z,14.50
2018-09-30T21:37:32.119Z,11.93
2018-09-30T21:40:00.719Z,13.50
2018-09-30T21:42:29.071Z,11.43
2018-09-30T21:44:57.544Z,10.10
2018-09-30T21:47:25.707Z,10.60
2018-09-30T21:49:54.115Z,10.70
2018-09-30T21:52:22.497Z,12.63
2018-09-30T21:54:50.835Z,11.00
2018-09-30T21:57:21.245Z,10.63
2018-09-30T21:59:49.777Z,9.30
2018-09-30T22:02:18.098Z,10.00
2018-09-30T22:04:46.257Z,11.97
2018-09-30T22:07:14.317Z,11.47
2018-09-30T22:09:42.512Z,10.90
2018-09-30T22:12:10.795Z,13.70
2018-09-30T22:14:39.337Z,10.73
2018-09-30T22:17:07.585Z,9.77
2018-09-30T22:19:35.993Z,9.70
2018-09-30T22:22:04.360Z,12.07
2018-09-30T22:24:32.674Z,9.50
2018-09-30T22:27:01.046Z,8.20
2018-09-30T22:29:29.280Z,11.03
2018-09-30T22:31:57.421Z,9.60
2018-09-30T22:34:25.837Z,11.43
2018-09-30T22:36:54.285Z,9.10
2018-09-30T22:39:22.303Z,12.53
2018-09-30T22:41:50.583Z,16.23
2018-09-30T22:44:18.819Z,14.77
2018-09-30T22:46:46.990Z,16.40
2018-09-30T22:49:15.656Z,15.63
2018-09-30T22:51:43.984Z,16.87
2018-09-30T22:54:12.175Z,13.57
2018-09-30T22:56:40.339Z,13.90
2018-09-30T22:59:09.068Z,13.93
2018-09-30T23:01:37.464Z,11.63
2018-09-30T23:04:05.966Z,13.80
2018-09-30T23:06:34.161Z,12.20
2018-09-30T23:09:02.638Z,11.87
2018-09-30T23:11:30.936Z,13.40
2018-09-30T23:13:59.444Z,12.53
2018-09-30T23:16:27.795Z,13.50
2018-09-30T23:18:56.194Z,11.27
2018-09-30T23:21:24.449Z,13.30
2018-09-30T23:23:52.677Z,14.90
2018-09-30T23:26:21.206Z,12.60
2018-09-30T23:28:49.504Z,12.73
2018-09-30T23:31:17.901Z,16.30
2018-09-30T23:33:46.657Z,16.60
2018-09-30T23:36:14.973Z,13.40
2018-09-30T23:38:43.512Z,13.23
2018-09-30T23:41:11.706Z,13.77
2018-09-30T23:43:40.066Z,12.27
2018-09-30T23:46:08.446Z,12.27
2018-09-30T23:48:37.750Z,12.87
2018-09-30T23:51:05.834Z,11.70
2018-09-30T23:53:34.084Z,10.50
2018-09-30T23:56:02.234Z,13.57
2018-09-30T23:58:30.411Z,12.53
